Time;durP1;ratioP1;P1;durP2;ratioP2;P2;SDS_P1;SDS_P2;PMS_P1;PMS_P2;Temp;Humidity;BMP_temperature;BMP_pressure;BME280_temperature;BME280_humidity;BME280_pressure;Samples;Min_cycle;Max_cycle;Signal;HPM_P1;HPM_P2
2022/04/08 00:00:00;;;;;;;5.40;2.30;;;8.20;99.90;;;;;;5034057;28;20235;-76
2022/04/08 00:02:26;;;;;;;3.70;1.50;;;8.20;99.90;;;;;;5052263;28;20227;-78
2022/04/08 00:04:52;;;;;;;3.20;1.30;;;8.30;99.90;;;;;;5033566;28;20204;-76
2022/04/08 00:07:18;;;;;;;3.77;1.33;;;8.30;99.90;;;;;;5036884;28;20308;-76
2022/04/08 00:09:43;;;;;;;3.57;1.43;;;8.30;99.90;;;;;;5053518;28;20644;-77
2022/04/08 00:12:09;;;;;;;3.07;1.10;;;8.30;99.90;;;;;;5038030;28;20196;-77
2022/04/08 00:14:35;;;;;;;3.17;1.40;;;8.30;99.90;;;;;;5054813;28;20211;-77
2022/04/08 00:17:02;;;;;;;4.13;1.60;;;8.20;99.90;;;;;;5037722;28;20208;-78
2022/04/08 00:19:28;;;;;;;4.53;1.50;;;8.30;99.90;;;;;;5036438;28;20216;-77
2022/04/08 00:21:53;;;;;;;5.20;1.30;;;8.20;99.90;;;;;;5055182;28;20218;-77
2022/04/08 00:24:19;;;;;;;3.43;1.60;;;8.20;99.90;;;;;;5056145;28;20195;-76
2022/04/08 00:26:47;;;;;;;2.23;1.40;;;8.20;99.90;;;;;;5037530;28;20208;-77
2022/04/08 00:29:13;;;;;;;5.40;1.80;;;8.10;99.90;;;;;;5030167;28;20623;-76
2022/04/08 00:31:39;;;;;;;3.10;1.17;;;8.10;99.90;;;;;;5046440;28;20219;-77
2022/04/08 00:34:05;;;;;;;3.83;1.43;;;8.10;99.90;;;;;;5055389;28;20211;-76
2022/04/08 00:36:30;;;;;;;4.70;1.50;;;8.10;99.90;;;;;;5055727;28;20187;-77
2022/04/08 00:38:56;;;;;;;1.63;1.23;;;8.00;99.90;;;;;;5059333;28;20219;-77
2022/04/08 00:41:21;;;;;;;4.43;1.30;;;8.00;99.90;;;;;;5040414;28;20211;-77
2022/04/08 00:43:47;;;;;;;2.03;1.30;;;8.00;99.90;;;;;;5036903;28;20204;-77
2022/04/08 00:46:12;;;;;;;4.03;1.47;;;8.00;99.90;;;;;;5037274;28;20212;-78
2022/04/08 00:48:38;;;;;;;3.60;1.50;;;8.00;99.90;;;;;;5028492;28;20180;-77
2022/04/08 00:51:06;;;;;;;3.90;1.60;;;7.90;99.90;;;;;;5037622;28;20233;-77
2022/04/08 00:53:34;;;;;;;1.80;1.00;;;7.90;99.90;;;;;;5027799;28;20677;-77
2022/04/08 00:56:01;;;;;;;3.17;1.50;;;7.90;99.90;;;;;;5049087;28;20239;-77
2022/04/08 00:58:28;;;;;;;3.03;1.13;;;8.00;99.90;;;;;;5036665;28;20268;-77
2022/04/08 01:00:54;;;;;;;3.53;1.07;;;8.00;99.90;;;;;;5037107;28;20527;-77
2022/04/08 01:03:19;;;;;;;4.00;1.20;;;7.90;99.90;;;;;;5054742;28;20245;-77
2022/04/08 01:05:45;;;;;;;2.47;0.90;;;7.90;99.90;;;;;;5044408;28;20203;-77
2022/04/08 01:08:12;;;;;;;3.87;1.00;;;7.90;99.90;;;;;;5053051;28;20204;-77
2022/04/08 01:10:40;;;;;;;2.77;1.30;;;8.00;99.90;;;;;;5054447;28;20223;-77
2022/04/08 01:13:05;;;;;;;4.13;1.20;;;8.00;99.90;;;;;;5036094;28;20291;-77
2022/04/08 01:15:31;;;;;;;2.00;0.70;;;8.00;99.90;;;;;;5053977;28;20202;-76
2022/04/08 01:17:56;;;;;;;2.63;0.90;;;8.00;99.90;;;;;;5034580;28;20282;-75
2022/04/08 01:20:22;;;;;;;2.87;0.90;;;8.00;99.90;;;;;;5019868;28;20211;-76
2022/04/08 01:22:47;;;;;;;3.40;1.20;;;8.00;99.90;;;;;;5035915;28;20219;-77
2022/04/08 01:25:13;;;;;;;5.23;1.03;;;7.90;99.90;;;;;;5054585;28;20668;-77
2022/04/08 01:27:39;;;;;;;4.13;1.00;;;7.90;99.90;;;;;;5034886;28;20207;-75
2022/04/08 01:30:07;;;;;;;2.03;0.83;;;7.90;99.90;;;;;;5028425;28;20290;-76
2022/04/08 01:32:33;;;;;;;2.70;1.47;;;7.90;99.90;;;;;;5032029;28;20215;-76
2022/04/08 01:34:59;;;;;;;2.03;0.90;;;7.90;99.90;;;;;;5033959;28;20208;-76
2022/04/08 01:37:24;;;;;;;2.40;0.87;;;7.90;99.90;;;;;;5034745;28;20277;-77
2022/04/08 01:39:50;;;;;;;4.37;0.83;;;7.90;99.90;;;;;;5051848;28;20176;-76
2022/04/08 01:42:21;;;;;;;4.97;0.90;;;7.80;99.90;;;;;;5053080;28;20780;-76
2022/04/08 01:44:47;;;;;;;3.93;1.17;;;7.90;99.90;;;;;;5026024;28;20290;-76
2022/04/08 01:47:13;;;;;;;2.00;0.80;;;7.80;99.90;;;;;;5034449;28;20619;-76
2022/04/08 01:49:38;;;;;;;2.37;0.80;;;7.80;99.90;;;;;;5033627;28;20215;-76
2022/04/08 01:52:05;;;;;;;2.83;0.90;;;7.80;99.90;;;;;;5051503;28;20215;-77
2022/04/08 01:54:30;;;;;;;2.90;1.20;;;7.90;99.90;;;;;;5052159;28;20176;-76
2022/04/08 01:56:55;;;;;;;2.40;1.30;;;7.80;99.90;;;;;;5051858;28;20218;-77
2022/04/08 01:59:21;;;;;;;3.00;1.00;;;7.80;99.90;;;;;;5050787;28;20253;-77
2022/04/08 02:01:46;;;;;;;2.10;1.20;;;7.80;99.90;;;;;;5051171;28;20272;-77
2022/04/08 02:04:12;;;;;;;2.53;0.93;;;7.80;99.90;;;;;;5033511;28;20211;-77
2022/04/08 02:06:40;;;;;;;1.63;0.90;;;7.80;99.90;;;;;;5051966;28;20200;-76
2022/04/08 02:09:07;;;;;;;5.33;0.93;;;7.80;99.90;;;;;;5032721;28;20222;-77
2022/04/08 02:11:33;;;;;;;2.03;0.70;;;7.80;99.90;;;;;;5033343;28;20564;-77
2022/04/08 02:13:58;;;;;;;2.83;1.30;;;7.80;99.90;;;;;;5051312;28;20266;-77
2022/04/08 02:16:24;;;;;;;3.90;0.80;;;7.80;99.90;;;;;;5051361;28;20294;-76
2022/04/08 02:18:50;;;;;;;4.93;0.90;;;7.80;99.90;;;;;;5050509;28;20180;-76
2022/04/08 02:21:19;;;;;;;4.83;0.90;;;7.80;99.90;;;;;;5033642;28;20772;-76
2022/04/08 02:23:52;;;;;;;2.67;1.10;;;7.80;99.90;;;;;;5045151;28;20207;-76
2022/04/08 02:26:18;;;;;;;5.07;1.13;;;7.80;99.90;;;;;;5043926;28;20211;-76
2022/04/08 02:28:44;;;;;;;4.07;0.83;;;7.90;99.90;;;;;;5024349;28;20196;-77
2022/04/08 02:31:10;;;;;;;1.13;0.90;;;7.90;99.90;;;;;;5024863;28;20295;-77
2022/04/08 02:33:36;;;;;;;2.33;1.00;;;7.90;99.90;;;;;;5040939;28;20177;-77
2022/04/08 02:36:01;;;;;;;2.17;0.97;;;7.90;99.90;;;;;;5033545;28;20196;-76
2022/04/08 02:38:27;;;;;;;3.97;1.17;;;7.90;99.90;;;;;;5034688;28;20295;-76
2022/04/08 02:40:53;;;;;;;3.47;1.10;;;7.90;99.90;;;;;;5049122;28;20224;-77
2022/04/08 02:43:18;;;;;;;3.40;1.13;;;7.90;99.90;;;;;;5048253;28;20224;-75
2022/04/08 02:45:44;;;;;;;2.97;0.80;;;7.90;99.90;;;;;;5033516;28;20182;-76
2022/04/08 02:48:09;;;;;;;4.67;1.27;;;7.90;99.90;;;;;;5046886;28;20172;-76
2022/04/08 02:50:35;;;;;;;2.73;0.70;;;8.00;99.90;;;;;;5046121;28;20212;-77
2022/04/08 02:53:00;;;;;;;2.43;0.90;;;7.90;99.90;;;;;;5028104;28;20211;-75
2022/04/08 02:55:26;;;;;;;6.30;1.00;;;7.90;99.90;;;;;;5038262;28;20223;-76
2022/04/08 02:57:51;;;;;;;5.37;1.20;;;7.90;99.90;;;;;;5047791;28;20187;-78
2022/04/08 03:00:19;;;;;;;3.37;0.90;;;7.90;99.90;;;;;;5025951;28;20551;-76
2022/04/08 03:02:45;;;;;;;2.50;0.70;;;7.90;99.90;;;;;;5079708;23;20291;-73
2022/04/08 03:05:12;;;;;;;2.47;1.10;;;7.90;99.90;;;;;;5082392;28;20194;-73
2022/04/08 03:07:37;;;;;;;5.17;0.83;;;7.90;99.90;;;;;;5075758;28;20233;-73
2022/04/08 03:10:04;;;;;;;3.73;0.87;;;7.90;99.90;;;;;;5078017;28;20680;-74
2022/04/08 03:12:31;;;;;;;1.40;0.70;;;7.90;99.90;;;;;;5107837;28;20201;-74
2022/04/08 03:14:57;;;;;;;3.00;1.00;;;7.90;99.90;;;;;;5079277;28;20202;-74
2022/04/08 03:17:23;;;;;;;2.80;0.90;;;7.90;99.90;;;;;;5070451;28;20301;-73
2022/04/08 03:19:48;;;;;;;3.47;1.00;;;7.90;99.90;;;;;;5097700;28;20849;-74
2022/04/08 03:22:14;;;;;;;3.27;0.90;;;7.90;99.90;;;;;;5095127;28;20213;-73
2022/04/08 03:24:39;;;;;;;4.10;0.70;;;7.90;99.90;;;;;;5090843;28;20182;-73
2022/04/08 03:27:05;;;;;;;3.20;0.87;;;7.90;99.90;;;;;;5097617;28;20205;-73
2022/04/08 03:29:30;;;;;;;4.10;0.93;;;7.90;99.90;;;;;;5091999;28;20590;-73
2022/04/08 03:31:56;;;;;;;2.87;1.17;;;7.90;99.90;;;;;;5072423;28;20209;-73
2022/04/08 03:34:21;;;;;;;1.10;0.70;;;8.00;99.90;;;;;;5072061;28;20293;-73
2022/04/08 03:36:47;;;;;;;2.83;0.70;;;8.00;99.90;;;;;;5091782;28;20193;-74
2022/04/08 03:39:13;;;;;;;2.33;1.23;;;8.00;99.90;;;;;;5090181;28;20227;-74
2022/04/08 03:41:40;;;;;;;2.43;1.07;;;8.00;99.90;;;;;;5075581;28;20213;-73
2022/04/08 03:44:05;;;;;;;1.77;0.67;;;8.00;99.90;;;;;;5076107;28;20202;-73
2022/04/08 03:46:31;;;;;;;2.07;0.73;;;7.90;99.90;;;;;;5075679;28;20206;-74
2022/04/08 03:48:56;;;;;;;1.27;0.60;;;7.90;99.90;;;;;;5075369;28;20174;-73
2022/04/08 03:51:22;;;;;;;3.70;0.80;;;7.90;99.90;;;;;;5094560;28;20190;-73
2022/04/08 03:53:47;;;;;;;3.00;1.13;;;7.90;99.90;;;;;;5075462;28;20310;-73
2022/04/08 03:56:13;;;;;;;1.60;0.87;;;7.90;99.90;;;;;;5095014;28;20202;-73
2022/04/08 03:58:38;;;;;;;2.20;0.93;;;7.90;99.90;;;;;;5101289;28;20303;-73
2022/04/08 04:01:03;;;;;;;1.37;0.70;;;7.80;99.90;;;;;;5093907;28;20222;-73
2022/04/08 04:03:29;;;;;;;1.40;0.60;;;7.80;99.90;;;;;;5093915;28;20210;-73
2022/04/08 04:05:55;;;;;;;2.23;0.80;;;7.80;99.90;;;;;;5093899;28;20575;-73
2022/04/08 04:08:20;;;;;;;1.90;0.53;;;7.70;99.90;;;;;;5092956;28;20255;-73
2022/04/08 04:10:46;;;;;;;0.90;0.67;;;7.70;99.90;;;;;;5083872;28;20263;-73
2022/04/08 04:13:12;;;;;;;2.97;0.60;;;7.60;99.90;;;;;;5093876;28;20237;-73
2022/04/08 04:15:37;;;;;;;2.10;0.80;;;7.60;99.90;;;;;;5075816;28;20224;-73
2022/04/08 04:18:03;;;;;;;2.93;0.60;;;7.60;99.90;;;;;;5092803;28;20275;-73
2022/04/08 04:20:29;;;;;;;3.03;0.63;;;7.50;99.90;;;;;;5093449;28;20226;-74
2022/04/08 04:22:55;;;;;;;0.87;0.77;;;7.50;99.90;;;;;;5093112;28;20218;-73
2022/04/08 04:25:20;;;;;;;1.73;0.80;;;7.40;99.90;;;;;;5075096;28;20710;-73
2022/04/08 04:27:46;;;;;;;3.27;0.87;;;7.40;99.90;;;;;;5100617;28;20174;-73
2022/04/08 04:30:11;;;;;;;2.33;0.80;;;7.30;99.90;;;;;;5075504;28;20535;-74
2022/04/08 04:32:37;;;;;;;0.93;0.80;;;7.30;99.90;;;;;;5074948;28;20210;-74
2022/04/08 04:35:06;;;;;;;2.17;1.07;;;7.30;99.90;;;;;;5073797;28;20234;-74
2022/04/08 04:37:36;;;;;;;2.47;0.70;;;7.30;99.90;;;;;;5101187;28;20208;-73
2022/04/08 04:40:04;;;;;;;2.10;1.10;;;7.20;99.90;;;;;;5119148;28;20203;-73
2022/04/08 04:42:30;;;;;;;2.33;1.13;;;7.20;99.90;;;;;;5117415;28;20215;-73
2022/04/08 04:44:56;;;;;;;3.80;1.13;;;7.20;99.90;;;;;;5127087;27;20295;-73
2022/04/08 04:47:22;;;;;;;2.67;1.00;;;7.20;99.90;;;;;;5133879;27;20204;-73
2022/04/08 04:49:48;;;;;;;2.67;1.07;;;7.10;99.90;;;;;;5103863;28;20662;-73
2022/04/08 04:52:13;;;;;;;2.80;1.33;;;7.10;99.90;;;;;;5108564;28;20240;-74
2022/04/08 04:54:40;;;;;;;4.70;1.10;;;7.10;99.90;;;;;;5113504;28;20311;-74
2022/04/08 04:57:06;;;;;;;1.50;1.20;;;7.10;99.90;;;;;;5115153;27;20205;-73
2022/04/08 04:59:32;;;;;;;5.27;1.00;;;7.10;99.90;;;;;;5132797;27;20215;-74
2022/04/08 05:01:57;;;;;;;5.20;1.23;;;7.10;99.90;;;;;;5133557;27;20209;-74
2022/04/08 05:04:23;;;;;;;4.13;1.27;;;7.00;99.90;;;;;;5133725;27;20201;-75
2022/04/08 05:06:48;;;;;;;2.63;1.10;;;7.10;99.90;;;;;;5084847;28;20166;-74
2022/04/08 05:09:14;;;;;;;5.50;1.30;;;7.00;99.90;;;;;;5087943;28;20192;-74
2022/04/08 05:11:39;;;;;;;1.30;0.90;;;7.00;99.90;;;;;;5092555;28;20241;-74
2022/04/08 05:14:05;;;;;;;4.47;1.10;;;7.00;99.90;;;;;;5082694;28;20233;-73
2022/04/08 05:16:30;;;;;;;2.80;0.97;;;7.00;99.90;;;;;;5091274;28;20225;-74
2022/04/08 05:18:56;;;;;;;1.83;0.97;;;7.00;99.90;;;;;;5090996;28;20185;-73
2022/04/08 05:21:22;;;;;;;4.07;1.20;;;7.00;99.90;;;;;;5092874;28;20218;-75
2022/04/08 05:23:47;;;;;;;3.27;0.93;;;7.00;99.90;;;;;;5091184;28;20233;-74
2022/04/08 05:26:14;;;;;;;2.20;0.90;;;7.10;99.90;;;;;;5092546;28;20214;-74
2022/04/08 05:28:40;;;;;;;4.90;1.57;;;7.10;99.90;;;;;;5091879;28;20214;-74
2022/04/08 05:31:05;;;;;;;1.90;1.10;;;7.20;99.90;;;;;;5091177;28;20533;-73
2022/04/08 05:33:30;;;;;;;3.13;0.90;;;7.20;99.90;;;;;;5092701;28;20617;-73
2022/04/08 05:35:56;;;;;;;2.40;0.90;;;7.20;99.90;;;;;;5098309;28;20197;-73
2022/04/08 05:38:21;;;;;;;3.23;1.10;;;7.30;99.90;;;;;;5089741;28;20231;-73
2022/04/08 05:40:49;;;;;;;2.83;0.90;;;7.30;99.90;;;;;;5078855;28;20201;-73
2022/04/08 05:43:18;;;;;;;3.27;0.90;;;7.20;99.90;;;;;;5107880;28;20214;-73
2022/04/08 05:45:43;;;;;;;2.03;0.93;;;7.10;99.90;;;;;;5104601;28;20368;-74
2022/04/08 05:48:09;;;;;;;2.70;0.77;;;7.20;99.90;;;;;;5087036;28;20265;-72
2022/04/08 05:50:34;;;;;;;2.00;0.93;;;7.10;99.90;;;;;;5102326;28;20209;-75
2022/04/08 05:53:00;;;;;;;1.80;1.00;;;7.10;99.90;;;;;;5083490;28;20217;-74
2022/04/08 05:55:26;;;;;;;3.97;0.97;;;7.10;99.90;;;;;;5092397;28;20245;-73
2022/04/08 05:57:56;;;;;;;5.90;0.97;;;7.10;99.90;;;;;;5074714;28;20202;-73
2022/04/08 06:00:23;;;;;;;3.70;1.27;;;7.20;99.90;;;;;;5113229;28;20176;-74
2022/04/08 06:02:49;;;;;;;3.97;0.90;;;7.20;99.90;;;;;;5090272;28;20223;-74
2022/04/08 06:05:18;;;;;;;1.47;0.70;;;7.20;99.90;;;;;;5095627;28;20206;-74
2022/04/08 06:07:45;;;;;;;2.67;0.83;;;7.30;99.90;;;;;;5084600;28;20201;-74
2022/04/08 06:10:11;;;;;;;2.53;0.87;;;7.20;99.90;;;;;;5112291;28;20205;-74
2022/04/08 06:12:36;;;;;;;2.53;0.80;;;7.20;99.90;;;;;;5093941;28;20202;-74
2022/04/08 06:15:02;;;;;;;5.40;1.20;;;7.30;99.90;;;;;;5113423;27;20223;-74
2022/04/08 06:17:38;;;;;;;2.90;1.23;;;7.20;99.90;;;;;;5113787;27;20209;-74
2022/04/08 06:20:09;;;;;;;1.57;0.80;;;7.30;99.90;;;;;;5113245;27;20208;-73
2022/04/08 06:22:37;;;;;;;2.97;0.87;;;7.30;99.90;;;;;;5132124;27;20227;-73
2022/04/08 06:25:03;;;;;;;2.47;1.10;;;7.40;99.90;;;;;;5132718;27;20690;-74
2022/04/08 06:27:29;;;;;;;2.77;0.80;;;7.40;99.90;;;;;;5132675;27;20814;-74
2022/04/08 06:29:54;;;;;;;3.27;1.23;;;7.40;99.90;;;;;;5131832;27;20193;-74
2022/04/08 06:32:20;;;;;;;3.60;0.90;;;7.30;99.90;;;;;;5114587;27;20214;-74
2022/04/08 06:34:47;;;;;;;3.53;1.33;;;7.60;99.90;;;;;;5132101;27;20193;-74
2022/04/08 06:37:13;;;;;;;2.40;0.80;;;8.00;99.90;;;;;;5108380;28;20206;-74
2022/04/08 06:39:38;;;;;;;4.00;1.10;;;8.40;99.90;;;;;;5102795;28;20177;-74
2022/04/08 06:42:04;;;;;;;2.27;1.20;;;8.50;99.90;;;;;;5097224;28;20591;-74
2022/04/08 06:44:29;;;;;;;4.53;1.23;;;8.00;99.90;;;;;;5109914;27;20231;-74
2022/04/08 06:46:55;;;;;;;2.73;1.07;;;7.20;99.90;;;;;;5134303;27;20204;-74
2022/04/08 06:49:20;;;;;;;3.63;1.30;;;6.80;99.90;;;;;;5115186;27;20201;-73
2022/04/08 06:51:46;;;;;;;2.83;1.00;;;6.30;99.90;;;;;;5133309;27;20208;-74
2022/04/08 06:54:11;;;;;;;6.33;1.20;;;6.30;99.90;;;;;;5133146;28;20204;-74
2022/04/08 06:56:37;;;;;;;5.20;2.10;;;6.20;99.90;;;;;;5132073;28;20204;-74
2022/04/08 06:59:02;;;;;;;4.47;1.30;;;6.00;99.90;;;;;;5131292;28;20208;-74
2022/04/08 07:01:29;;;;;;;4.87;1.50;;;5.80;99.90;;;;;;5131616;28;20242;-74
2022/04/08 07:03:55;;;;;;;3.70;1.27;;;5.60;99.90;;;;;;5132485;28;20176;-74
2022/04/08 07:06:20;;;;;;;4.13;1.10;;;5.50;99.90;;;;;;5090999;28;20178;-74
2022/04/08 07:08:46;;;;;;;1.83;1.00;;;5.50;99.90;;;;;;5097883;28;20618;-74
2022/04/08 07:11:11;;;;;;;2.17;1.20;;;5.30;99.90;;;;;;5094433;28;20212;-74
2022/04/08 07:13:39;;;;;;;1.93;1.20;;;5.40;99.90;;;;;;5112919;28;20220;-74
2022/04/08 07:16:05;;;;;;;3.80;1.23;;;5.60;99.90;;;;;;5101576;27;20729;-74
2022/04/08 07:18:30;;;;;;;3.63;1.30;;;5.90;99.90;;;;;;5117842;27;20165;-74
2022/04/08 07:20:55;;;;;;;3.00;0.90;;;6.10;99.90;;;;;;5118567;27;20235;-74
2022/04/08 07:23:21;;;;;;;4.50;1.20;;;6.30;99.90;;;;;;5117502;27;20247;-73
2022/04/08 07:25:46;;;;;;;4.77;1.23;;;6.30;99.90;;;;;;5117502;27;20256;-75
2022/04/08 07:28:12;;;;;;;8.10;1.20;;;6.50;99.90;;;;;;5134862;27;20315;-75
2022/04/08 07:30:37;;;;;;;3.30;1.03;;;7.70;99.90;;;;;;5135800;27;20177;-75
2022/04/08 07:33:04;;;;;;;4.57;1.43;;;8.60;99.90;;;;;;5116740;27;20197;-75
2022/04/08 07:35:30;;;;;;;3.00;0.80;;;8.90;99.90;;;;;;5110271;28;20636;-75
2022/04/08 07:37:56;;;;;;;3.13;1.20;;;8.50;99.90;;;;;;5086249;28;20198;-75
2022/04/08 07:40:22;;;;;;;5.40;1.53;;;8.50;99.90;;;;;;5094259;28;20206;-74
2022/04/08 07:42:48;;;;;;;3.17;0.97;;;8.50;99.90;;;;;;5094994;28;20213;-75
2022/04/08 07:45:14;;;;;;;3.77;0.77;;;8.10;99.90;;;;;;5115515;28;20634;-74
2022/04/08 07:47:40;;;;;;;2.93;0.97;;;8.10;99.90;;;;;;5100412;28;20206;-74
2022/04/08 07:50:09;;;;;;;1.70;0.90;;;8.40;99.90;;;;;;5114543;28;20201;-75
2022/04/08 07:52:34;;;;;;;3.90;1.00;;;9.30;99.90;;;;;;5116146;28;20266;-78
2022/04/08 07:55:00;;;;;;;2.93;1.00;;;11.30;99.90;;;;;;5105863;28;20226;-76
2022/04/08 07:57:25;;;;;;;2.23;0.83;;;13.30;99.90;;;;;;5076869;28;20263;-79
2022/04/08 07:59:51;;;;;;;2.00;1.15;;;14.70;99.90;;;;;;5109069;27;20753;-75
2022/04/08 08:02:17;;;;;;;3.10;1.17;;;15.70;99.90;;;;;;5126279;27;20216;-77
2022/04/08 08:04:42;;;;;;;1.70;0.80;;;15.90;99.90;;;;;;5096967;28;20577;-77
2022/04/08 08:07:08;;;;;;;4.97;1.30;;;16.40;99.90;;;;;;5081203;28;20255;-76
2022/04/08 08:09:34;;;;;;;4.75;1.13;;;16.50;99.90;;;;;;5108869;28;20192;-76
2022/04/08 08:12:00;;;;;;;7.00;1.27;;;15.70;99.90;;;;;;5108992;28;20601;-76
2022/04/08 08:14:25;;;;;;;4.15;1.50;;;15.90;99.90;;;;;;5081400;28;20756;-76
2022/04/08 08:16:51;;;;;;;4.28;1.33;;;16.10;99.90;;;;;;5072493;28;20219;-76
2022/04/08 08:19:17;;;;;;;4.80;1.30;;;15.70;99.90;;;;;;5090595;28;20210;-76
2022/04/08 08:21:42;;;;;;;8.05;1.40;;;15.60;99.90;;;;;;5096901;28;20628;-76
2022/04/08 08:24:08;;;;;;;3.22;1.23;;;15.40;99.90;;;;;;5096214;28;20686;-76
2022/04/08 08:26:33;;;;;;;6.03;1.45;;;15.50;99.90;;;;;;5114464;28;20214;-76
2022/04/08 08:28:59;;;;;;;3.88;1.10;;;16.50;99.90;;;;;;5096306;28;20205;-76
2022/04/08 08:31:25;;;;;;;7.95;1.50;;;16.50;99.90;;;;;;5094379;28;20684;-76
2022/04/08 08:33:50;;;;;;;9.80;1.90;;;16.20;99.90;;;;;;5090107;28;20190;-75
2022/04/08 08:36:16;;;;;;;9.48;1.63;;;15.40;99.90;;;;;;5111795;28;20173;-76
2022/04/08 08:38:42;;;;;;;5.70;1.17;;;14.80;99.90;;;;;;5127551;28;20200;-76
2022/04/08 08:41:09;;;;;;;6.40;1.70;;;14.70;99.90;;;;;;5105968;28;20209;-76
2022/04/08 08:43:36;;;;;;;9.82;2.30;;;14.30;99.90;;;;;;5098258;28;20209;-76
2022/04/08 08:46:03;;;;;;;6.23;1.63;;;13.30;99.90;;;;;;5094536;28;20666;-76
2022/04/08 08:48:32;;;;;;;6.27;1.63;;;13.30;99.90;;;;;;5076424;28;20177;-76
2022/04/08 08:51:01;;;;;;;6.53;1.60;;;13.00;99.90;;;;;;5076147;28;20218;-76
2022/04/08 08:53:30;;;;;;;6.83;2.27;;;12.90;99.90;;;;;;5089061;28;20236;-76
2022/04/08 08:55:56;;;;;;;5.70;1.40;;;13.20;99.90;;;;;;5104915;28;20219;-75
2022/04/08 08:58:23;;;;;;;6.27;1.70;;;12.80;99.90;;;;;;5095559;28;20288;-76
2022/04/08 09:00:48;;;;;;;5.50;1.37;;;12.90;99.90;;;;;;5114082;28;20626;-75
2022/04/08 09:03:14;;;;;;;9.07;1.53;;;13.20;99.90;;;;;;5124605;22;20230;-76
2022/04/08 09:05:45;;;;;;;5.43;1.30;;;13.80;99.90;;;;;;5076529;28;20218;-77
2022/04/08 09:08:13;;;;;;;3.60;1.57;;;13.10;99.90;;;;;;5078724;28;20198;-77
2022/04/08 09:10:43;;;;;;;3.17;1.33;;;11.70;99.90;;;;;;5089876;28;20210;-77
2022/04/08 09:13:09;;;;;;;7.00;1.33;;;11.30;99.90;;;;;;5098149;28;20274;-76
2022/04/08 09:15:39;;;;;;;5.57;1.20;;;11.70;99.90;;;;;;5078143;28;20196;-77
2022/04/08 09:18:09;;;;;;;6.90;1.40;;;11.50;99.90;;;;;;5112071;28;20292;-77
2022/04/08 09:20:39;;;;;;;5.33;1.30;;;11.10;99.90;;;;;;5104312;28;20205;-76
2022/04/08 09:23:07;;;;;;;4.87;1.23;;;10.80;99.90;;;;;;5094089;28;20319;-77
2022/04/08 09:25:33;;;;;;;5.73;1.60;;;11.30;99.90;;;;;;5111005;28;20847;-76
2022/04/08 09:28:15;;;;;;;7.33;2.10;;;11.60;99.90;;;;;;5105313;28;20259;-76
2022/04/08 09:30:47;;;;;;;5.00;1.70;;;11.40;99.90;;;;;;5113337;28;20178;-77
2022/04/08 09:33:16;;;;;;;5.53;1.60;;;11.50;99.90;;;;;;5094328;28;20709;-77
2022/04/08 09:35:42;;;;;;;4.20;1.50;;;11.60;99.90;;;;;;5098623;28;20387;-77
2022/04/08 09:38:08;;;;;;;7.83;1.83;;;11.20;99.90;;;;;;5111191;28;20208;-76
2022/04/08 09:40:38;;;;;;;8.87;1.20;;;11.40;99.90;;;;;;5112455;28;20288;-77
2022/04/08 09:43:04;;;;;;;6.00;1.63;;;11.20;99.90;;;;;;5079975;28;20206;-75
2022/04/08 09:45:32;;;;;;;5.13;1.37;;;10.80;99.90;;;;;;5091408;28;20281;-76
2022/04/08 09:47:59;;;;;;;3.33;1.20;;;11.30;99.90;;;;;;5103181;28;20971;-77
2022/04/08 09:50:26;;;;;;;4.87;1.47;;;11.30;99.90;;;;;;5095728;28;20213;-77
2022/04/08 09:52:52;;;;;;;4.57;1.40;;;11.80;99.90;;;;;;5086425;28;20203;-77
2022/04/08 09:55:17;;;;;;;7.13;1.63;;;12.50;99.90;;;;;;5110841;28;20681;-77
2022/04/08 09:57:45;;;;;;;5.50;1.77;;;12.10;99.90;;;;;;5113121;28;20205;-76
2022/04/08 10:00:18;;;;;;;5.20;1.70;;;12.20;99.90;;;;;;5013399;28;20550;-75
2022/04/08 10:02:49;;;;;;;5.07;1.37;;;12.50;99.90;;;;;;4989163;28;20254;-75
2022/04/08 10:05:15;;;;;;;4.53;1.50;;;12.70;99.90;;;;;;4987713;28;20215;-76
2022/04/08 10:07:43;;;;;;;4.70;1.80;;;13.00;99.90;;;;;;4971835;28;20218;-75
2022/04/08 10:10:27;;;;;;;3.60;1.33;;;12.70;99.90;;;;;;4974074;28;20221;-74
2022/04/08 10:13:03;;;;;;;3.40;1.13;;;12.40;99.90;;;;;;4951044;28;20595;-75
2022/04/08 10:15:43;;;;;;;7.17;1.70;;;11.50;99.90;;;;;;4983727;28;20216;-75
2022/04/08 10:18:09;;;;;;;4.50;1.43;;;11.20;99.90;;;;;;4977741;28;20790;-75
2022/04/08 10:20:37;;;;;;;6.90;1.33;;;10.90;99.90;;;;;;4979589;28;20265;-74
2022/04/08 10:23:10;;;;;;;6.10;1.20;;;10.70;99.90;;;;;;4976186;28;20265;-76
2022/04/08 10:25:38;;;;;;;6.50;1.73;;;10.50;99.90;;;;;;4973866;28;20558;-75
2022/04/08 10:28:04;;;;;;;11.10;2.17;;;10.60;99.90;;;;;;4974171;28;20175;-75
2022/04/08 10:30:35;;;;;;;6.43;2.17;;;10.70;99.90;;;;;;4974977;28;20246;-75
2022/04/08 10:33:06;;;;;;;6.27;2.10;;;11.20;99.90;;;;;;4975941;28;20282;-79
2022/04/08 10:35:32;;;;;;;4.30;1.67;;;11.70;99.90;;;;;;4984869;28;20237;-77
2022/04/08 10:38:03;;;;;;;4.73;1.83;;;12.00;99.90;;;;;;4971528;28;20206;-77
2022/04/08 10:40:39;;;;;;;5.83;1.57;;;11.80;99.90;;;;;;4966299;28;20229;-77
2022/04/08 10:43:07;;;;;;;6.30;1.60;;;11.80;99.90;;;;;;4968993;28;20297;-76
2022/04/08 10:45:33;;;;;;;3.87;1.37;;;11.60;99.90;;;;;;4969227;28;20185;-75
2022/04/08 10:48:09;;;;;;;2.93;0.97;;;11.70;99.90;;;;;;4968186;28;20638;-71
2022/04/08 10:50:35;;;;;;;4.03;1.30;;;11.60;99.90;;;;;;4992269;28;20199;-78
2022/04/08 10:53:09;;;;;;;4.70;1.70;;;11.70;99.90;;;;;;4977281;28;20218;-77
2022/04/08 10:55:53;;;;;;;4.23;1.13;;;11.60;99.90;;;;;;4973278;28;20199;-79
2022/04/08 10:58:41;;;;;;;5.27;1.07;;;11.70;99.90;;;;;;4985806;28;20260;-76
2022/04/08 11:01:21;;;;;;;5.37;1.20;;;11.40;99.90;;;;;;4982885;28;20643;-76
2022/04/08 11:04:02;;;;;;;2.50;1.50;;;10.90;99.90;;;;;;4981285;28;20738;-75
2022/04/08 11:06:29;;;;;;;4.47;1.47;;;11.00;99.90;;;;;;4981323;28;20178;-79
2022/04/08 11:08:55;;;;;;;3.33;1.50;;;11.30;99.90;;;;;;4987545;28;20213;-77
2022/04/08 11:11:31;;;;;;;6.27;1.57;;;11.30;99.90;;;;;;4969803;28;20278;-77
2022/04/08 11:13:58;;;;;;;7.03;2.97;;;11.00;99.90;;;;;;4974605;28;20242;-77
2022/04/08 11:16:26;;;;;;;4.70;1.60;;;11.10;99.90;;;;;;4959050;28;20219;-76
2022/04/08 11:18:53;;;;;;;5.77;1.30;;;11.30;99.90;;;;;;4959079;28;20198;-76
2022/04/08 11:21:19;;;;;;;3.97;1.37;;;11.30;99.90;;;;;;4958104;28;20183;-77
2022/04/08 11:23:59;;;;;;;4.17;1.13;;;11.20;99.90;;;;;;4971197;28;20203;-76
2022/04/08 11:26:27;;;;;;;3.83;1.70;;;11.30;99.90;;;;;;4972170;28;20261;-78
2022/04/08 11:28:53;;;;;;;7.90;2.23;;;11.60;99.90;;;;;;4978703;28;20210;-77
2022/04/08 11:31:19;;;;;;;5.13;1.40;;;11.30;99.90;;;;;;4981878;28;20649;-79
2022/04/08 11:33:45;;;;;;;4.43;1.23;;;11.10;99.90;;;;;;4977052;28;20259;-81
2022/04/08 11:36:10;;;;;;;6.53;1.67;;;11.10;99.90;;;;;;4978683;28;20175;-82
2022/04/08 11:38:36;;;;;;;3.77;1.17;;;11.50;99.90;;;;;;4975696;28;20278;-78
2022/04/08 11:41:02;;;;;;;4.60;1.07;;;11.70;99.90;;;;;;4946381;28;20278;-80
2022/04/08 11:43:28;;;;;;;2.33;1.00;;;12.00;99.90;;;;;;4971207;28;20218;-80
2022/04/08 11:45:53;;;;;;;4.17;1.50;;;11.50;99.90;;;;;;4962732;28;20195;-77
2022/04/08 11:48:20;;;;;;;4.00;1.20;;;11.30;99.90;;;;;;4983130;28;20180;-80
2022/04/08 11:50:47;;;;;;;4.97;1.50;;;11.30;99.90;;;;;;4973669;28;20270;-79
2022/04/08 11:53:16;;;;;;;5.00;1.63;;;11.30;99.90;;;;;;4965414;28;20222;-80
2022/04/08 11:55:53;;;;;;;4.30;1.23;;;11.20;99.90;;;;;;4956903;28;20216;-76
2022/04/08 11:58:18;;;;;;;1.03;0.70;;;11.10;99.90;;;;;;4969731;28;20237;-78
2022/04/08 12:00:50;;;;;;;5.07;1.70;;;11.20;99.90;;;;;;4958663;28;20187;-82
2022/04/08 12:03:23;;;;;;;4.97;1.83;;;11.10;99.90;;;;;;4959086;28;20206;-79
2022/04/08 12:05:50;;;;;;;6.83;1.57;;;10.90;99.90;;;;;;4955543;28;20621;-81
2022/04/08 12:08:17;;;;;;;4.53;1.40;;;11.20;99.90;;;;;;4961529;28;20235;-80
2022/04/08 12:10:43;;;;;;;4.17;1.50;;;11.10;99.90;;;;;;4989719;28;20214;-86
2022/04/08 12:13:16;;;;;;;5.07;1.40;;;11.30;99.90;;;;;;4975208;28;20223;-80
2022/04/08 12:15:46;;;;;;;4.83;1.33;;;11.40;99.90;;;;;;4974067;28;20215;-81
2022/04/08 12:18:12;;;;;;;4.57;1.07;;;11.70;99.90;;;;;;4976092;28;20219;-82
2022/04/08 12:20:41;;;;;;;3.60;1.47;;;11.50;99.90;;;;;;4956468;28;20261;-80
2022/04/08 12:23:10;;;;;;;6.23;1.70;;;11.70;99.90;;;;;;4968908;28;20236;-82
2022/04/08 12:25:37;;;;;;;1.90;1.20;;;11.80;99.90;;;;;;4941530;29;20247;-83
2022/04/08 12:28:11;;;;;;;7.17;1.67;;;11.80;99.90;;;;;;4957573;28;20175;-80
2022/04/08 12:30:37;;;;;;;2.97;1.20;;;12.00;99.90;;;;;;4941023;28;20190;-81
2022/04/08 12:33:02;;;;;;;4.23;1.20;;;12.10;99.90;;;;;;4957488;28;20210;-80
2022/04/08 12:35:27;;;;;;;5.83;1.60;;;12.20;99.90;;;;;;4958654;28;20266;-79
2022/04/08 12:37:53;;;;;;;4.80;1.60;;;12.00;99.90;;;;;;4956819;28;20270;-81
2022/04/08 12:40:19;;;;;;;4.20;1.07;;;12.10;99.90;;;;;;4959945;28;20230;-78
2022/04/08 12:42:44;;;;;;;5.50;1.43;;;11.80;99.90;;;;;;4956002;28;20203;-77
2022/04/08 12:45:10;;;;;;;3.60;1.30;;;11.80;99.90;;;;;;4960142;28;20210;-79
2022/04/08 12:47:36;;;;;;;4.33;1.13;;;11.70;99.90;;;;;;4940785;28;20239;-77
2022/04/08 12:50:02;;;;;;;4.80;1.40;;;11.50;99.90;;;;;;4937821;29;20249;-79